Time;durP1;ratioP1;P1;durP2;ratioP2;P2;SDS_P1;SDS_P2;PMS_P1;PMS_P2;Temp;Humidity;BMP_temperature;BMP_pressure;BME280_temperature;BME280_humidity;BME280_pressure;Samples;Min_cycle;Max_cycle;Signal;HPM_P1;HPM_P2
2021/06/11 10:51:54;;;;;;;5.70;5.10;;;;;;;;;;5107425;28;20529;-95
2021/06/11 10:54:40;;;;;;;6.20;4.60;;;;;;;;;;5079906;28;20455;-96
2021/06/11 10:57:16;;;;;;;13.93;4.93;;;;;;;;;;5036871;28;20478;-93
2021/06/11 10:59:52;;;;;;;5.10;4.70;;;;;;;;;;5026153;28;20562;-96
2021/06/11 11:02:45;;;;;;;8.93;4.60;;;;;;;;;;5026929;28;20452;-95
2021/06/11 11:05:24;;;;;;;5.47;5.10;;;;;;;;;;5028914;28;20938;-93
2021/06/11 11:07:51;;;;;;;5.50;4.07;;;;;;;;;;5027986;28;20506;-95
2021/06/11 11:10:36;;;;;;;5.40;4.90;;;;;;;;;;5030293;28;20452;-96
2021/06/11 11:13:47;;;;;;;5.43;5.03;;;;;;;;;;5031961;28;20456;-96
2021/06/11 11:16:34;;;;;;;6.60;4.97;;;;;;;;;;5024057;28;20436;-96
2021/06/11 11:19:15;;;;;;;10.20;5.20;;;;;;;;;;5192210;23;20491;-95
2021/06/11 11:21:51;;;;;;;7.53;5.33;;;;;;;;;;5045078;28;20511;-96
2021/06/11 11:24:28;;;;;;;5.93;5.43;;;;;;;;;;5038502;28;20503;-96
2021/06/11 11:34:56;;;;;;;5.60;5.10;;;;;;;;;;4962396;22;20483;-95
2021/06/11 11:37:22;;;;;;;5.37;4.87;;;;;;;;;;5074161;28;20446;-95
2021/06/11 11:39:49;;;;;;;5.50;5.07;;;;;;;;;;5071738;28;20482;-95
2021/06/11 11:42:16;;;;;;;6.60;4.43;;;;;;;;;;5067279;28;20515;-96
2021/06/11 11:44:44;;;;;;;5.00;4.60;;;;;;;;;;5065567;28;20454;-96
2021/06/11 11:47:10;;;;;;;5.03;4.57;;;;;;;;;;5065170;28;20511;-94
2021/06/11 11:49:37;;;;;;;5.47;4.97;;;;;;;;;;5065075;28;20442;-96
2021/06/11 11:52:04;;;;;;;5.37;4.97;;;;;;;;;;5046818;28;20459;-96
2021/06/11 11:54:32;;;;;;;7.67;5.37;;;;;;;;;;5053410;28;20443;-95
2021/06/11 11:56:58;;;;;;;6.70;5.67;;;;;;;;;;5050412;28;20486;-94
2021/06/11 11:59:25;;;;;;;6.03;5.23;;;;;;;;;;5052436;28;20508;-95
2021/06/11 12:01:51;;;;;;;5.53;5.03;;;;;;;;;;5050550;28;20462;-94
2021/06/11 12:04:19;;;;;;;6.20;5.50;;;;;;;;;;5047069;28;20532;-96
2021/06/11 12:09:33;;;;;;;5.70;5.17;;;;;;;;;;5050944;28;20455;-96
2021/06/11 12:12:00;;;;;;;6.23;5.30;;;;;;;;;;5050471;28;20462;-96
2021/06/11 12:14:29;;;;;;;5.70;5.20;;;;;;;;;;5045638;28;20466;-95
2021/06/11 12:17:07;;;;;;;11.10;6.33;;;;;;;;;;5024750;28;20456;-96
2021/06/11 12:20:20;;;;;;;5.20;4.80;;;;;;;;;;5065330;23;20459;-96
2021/06/11 12:28:37;;;;;;;7.23;5.33;;;;;;;;;;5394417;22;20476;-96
2021/06/11 12:31:13;;;;;;;6.20;5.70;;;;;;;;;;5016418;23;20519;-96
2021/06/11 12:36:15;;;;;;;5.93;5.30;;;;;;;;;;4793394;23;20482;-96
2021/06/11 12:38:41;;;;;;;5.93;5.53;;;;;;;;;;5022566;23;20494;-95
2021/06/11 12:41:09;;;;;;;5.87;5.47;;;;;;;;;;5456430;23;20506;-95
2021/06/11 12:52:02;;;;;;;5.50;5.00;;;;;;;;;;5212916;23;21748;-96
2021/06/11 12:54:28;;;;;;;6.43;5.60;;;;;;;;;;4999907;28;20469;-94
2021/06/11 12:57:01;;;;;;;7.63;6.10;;;;;;;;;;5005318;28;20505;-96
2021/06/11 12:59:29;;;;;;;5.90;5.50;;;;;;;;;;5008488;28;20441;-96
2021/06/11 13:05:09;;;;;;;6.03;5.53;;;;;;;;;;5051822;23;20501;-96
2021/06/11 13:15:46;;;;;;;5.90;5.40;;;;;;;;;;5030393;23;20503;-96
2021/06/11 13:20:50;;;;;;;6.40;5.87;;;;;;;;;;5048175;23;20511;-96
2021/06/11 13:25:44;;;;;;;5.40;5.00;;;;;;;;;;5099213;23;20520;-95
2021/06/11 13:28:10;;;;;;;5.70;5.23;;;;;;;;;;4998132;28;20449;-96
2021/06/11 13:30:38;;;;;;;5.90;5.50;;;;;;;;;;4979847;28;20507;-96
2021/06/11 13:33:09;;;;;;;5.57;5.17;;;;;;;;;;4989023;28;20452;-96
2021/06/11 13:35:35;;;;;;;6.30;5.00;;;;;;;;;;4991150;28;20497;-96
2021/06/11 13:38:02;;;;;;;5.70;5.20;;;;;;;;;;4991989;28;20454;-96
2021/06/11 13:40:31;;;;;;;5.50;5.10;;;;;;;;;;5161091;23;20540;-96
2021/06/11 13:43:06;;;;;;;5.80;5.30;;;;;;;;;;5012498;28;20825;-96
2021/06/11 13:48:12;;;;;;;6.30;5.70;;;;;;;;;;4656789;23;20559;-96
2021/06/11 13:53:16;;;;;;;5.77;5.27;;;;;;;;;;5026624;28;20505;-93
2021/06/11 13:58:26;;;;;;;5.83;5.43;;;;;;;;;;5016156;28;20888;-96
2021/06/11 14:00:52;;;;;;;9.80;5.70;;;;;;;;;;5025528;23;20496;-95
2021/06/11 14:03:25;;;;;;;7.50;6.40;;;;;;;;;;5006995;28;20489;-96
2021/06/11 14:05:51;;;;;;;5.80;5.40;;;;;;;;;;5010604;28;20429;-94
2021/06/11 14:08:41;;;;;;;10.50;6.70;;;;;;;;;;5009078;28;20440;-95
2021/06/11 14:16:52;;;;;;;7.23;5.70;;;;;;;;;;5333416;23;20510;-96
2021/06/11 14:19:30;;;;;;;5.50;5.10;;;;;;;;;;5032276;28;20452;-95
2021/06/11 14:25:12;;;;;;;6.13;5.73;;;;;;;;;;5016523;23;20484;-95
2021/06/11 14:27:43;;;;;;;5.73;5.33;;;;;;;;;;5062034;23;21733;-95
2021/06/11 14:30:12;;;;;;;5.87;5.47;;;;;;;;;;4992459;28;20461;-94
2021/06/11 14:32:38;;;;;;;7.03;6.40;;;;;;;;;;4992401;28;20441;-95
2021/06/11 14:35:11;;;;;;;5.80;5.40;;;;;;;;;;4987740;28;20452;-96
2021/06/11 14:45:45;;;;;;;8.07;7.37;;;;;;;;;;5149707;23;20502;-95
2021/06/11 14:51:09;;;;;;;7.90;7.20;;;;;;;;;;4998514;28;20902;-94
2021/06/11 14:56:41;;;;;;;7.50;6.80;;;;;;;;;;5001245;28;20446;-96
2021/06/11 14:59:12;;;;;;;7.33;6.60;;;;;;;;;;5006136;23;20520;-96
2021/06/11 15:01:59;;;;;;;7.57;6.90;;;;;;;;;;5004448;28;20429;-96
2021/06/11 15:07:02;;;;;;;8.00;7.20;;;;;;;;;;3682570;23;20452;-96
2021/06/11 19:51:12;;;;;;;7.80;7.07;;;;;;;;;;4407343;23;20792;-96
2021/06/11 20:16:40;;;;;;;8.67;7.87;;;;;;;;;;6032802;23;21266;-96
2021/06/11 21:16:27;;;;;;;13.30;9.00;;;;;;;;;;5745376;23;20500;-96
2021/06/11 22:29:51;;;;;;;8.90;7.83;;;;;;;;;;4964494;28;20474;-96
2021/06/11 22:32:18;;;;;;;9.43;8.53;;;;;;;;;;4976460;28;20484;-96
2021/06/11 22:45:53;;;;;;;10.00;9.00;;;;;;;;;;5242713;23;20527;-96
2021/06/11 23:23:07;;;;;;;10.10;8.30;;;;;;;;;;4967686;29;20502;-96
2021/06/11 23:25:44;;;;;;;10.07;8.60;;;;;;;;;;4974239;29;20486;-96
2021/06/11 23:31:00;;;;;;;11.30;10.10;;;;;;;;;;4974934;28;20490;-96
2021/06/11 23:33:27;;;;;;;9.57;8.60;;;;;;;;;;5108943;23;20494;-96
2021/06/11 23:35:53;;;;;;;10.90;9.00;;;;;;;;;;4968297;28;20523;-96
2021/06/11 23:44:08;;;;;;;9.47;8.57;;;;;;;;;;5082430;23;20489;-96
2021/06/11 23:46:39;;;;;;;14.80;8.37;;;;;;;;;;4972544;28;20452;-96
2021/06/11 23:49:06;;;;;;;13.40;9.17;;;;;;;;;;4981027;28;20488;-96
2021/06/11 23:51:33;;;;;;;9.13;8.23;;;;;;;;;;4992219;28;20492;-96
2021/06/11 23:54:04;;;;;;;13.43;9.63;;;;;;;;;;4994410;28;20463;-96
